createdAt,value
2019-06-26T00:00:38.877Z,26.06
2019-06-26T00:03:05.515Z,26.04
2019-06-26T00:05:32.099Z,26.03
2019-06-26T00:07:58.718Z,26.01
2019-06-26T00:10:25.352Z,26.01
2019-06-26T00:12:51.925Z,26.01
2019-06-26T00:15:18.532Z,26.00
2019-06-26T00:17:45.177Z,26.01
2019-06-26T00:20:11.818Z,25.99
2019-06-26T00:22:38.531Z,26.01
2019-06-26T00:25:05.208Z,26.01
2019-06-26T00:27:31.824Z,26.01
2019-06-26T00:29:58.410Z,26.01
2019-06-26T00:32:25.062Z,26.00
2019-06-26T00:34:51.645Z,25.99
2019-06-26T00:37:18.224Z,25.96
2019-06-26T00:39:44.843Z,25.95
2019-06-26T00:42:11.420Z,25.92
2019-06-26T00:44:38.882Z,25.89
2019-06-26T00:47:05.480Z,25.88
2019-06-26T00:49:32.065Z,25.85
2019-06-26T00:51:58.663Z,25.82
2019-06-26T00:54:25.238Z,25.79
2019-06-26T00:56:51.854Z,25.77
2019-06-26T00:59:18.460Z,25.76
2019-06-26T01:01:45.046Z,25.76
2019-06-26T01:04:11.679Z,25.75
2019-06-26T01:06:38.258Z,25.73
2019-06-26T01:09:04.831Z,25.71
2019-06-26T01:11:31.420Z,25.70
2019-06-26T01:13:58.494Z,25.69
2019-06-26T01:16:25.405Z,25.67
2019-06-26T01:18:51.982Z,25.67
2019-06-26T01:21:18.555Z,25.65
2019-06-26T01:23:45.148Z,25.61
2019-06-26T01:26:11.730Z,25.58
2019-06-26T01:28:38.337Z,25.53
2019-06-26T01:31:04.995Z,25.47
2019-06-26T01:33:31.595Z,25.43
2019-06-26T01:35:58.178Z,25.39
2019-06-26T01:38:24.784Z,25.37
2019-06-26T01:40:51.401Z,25.36
2019-06-26T01:43:17.985Z,25.36
2019-06-26T01:45:44.606Z,25.35
2019-06-26T01:48:11.184Z,25.34
2019-06-26T01:50:37.782Z,25.33
2019-06-26T01:53:04.383Z,25.33
2019-06-26T01:55:30.990Z,25.31
2019-06-26T01:57:57.612Z,25.29
2019-06-26T02:00:24.200Z,25.27
2019-06-26T02:02:50.806Z,25.25
2019-06-26T02:05:17.440Z,25.26
2019-06-26T02:07:44.017Z,25.26
2019-06-26T02:10:10.653Z,25.25
2019-06-26T02:12:37.221Z,25.25
2019-06-26T02:15:03.796Z,25.25
2019-06-26T02:17:30.417Z,25.24
2019-06-26T02:19:57.012Z,25.25
2019-06-26T02:22:23.639Z,25.24
2019-06-26T02:24:50.216Z,25.22
2019-06-26T02:27:16.795Z,25.21
2019-06-26T02:29:43.391Z,25.19
2019-06-26T02:32:09.996Z,25.18
2019-06-26T02:34:36.607Z,25.15
2019-06-26T02:37:03.240Z,25.11
2019-06-26T02:39:30.141Z,25.08
2019-06-26T02:41:56.859Z,25.05
2019-06-26T02:44:23.470Z,25.00
2019-06-26T02:46:50.045Z,24.92
2019-06-26T02:49:16.649Z,24.85
2019-06-26T02:51:43.257Z,24.79
2019-06-26T02:54:09.875Z,24.74
2019-06-26T02:56:36.456Z,24.71
2019-06-26T02:59:03.071Z,24.67
2019-06-26T03:01:29.745Z,24.66
2019-06-26T03:03:56.333Z,24.65
2019-06-26T03:06:22.934Z,24.65
2019-06-26T03:08:49.539Z,24.67
2019-06-26T03:11:16.170Z,24.67
2019-06-26T03:13:42.785Z,24.69
2019-06-26T03:16:09.399Z,24.68
2019-06-26T03:18:35.984Z,24.67
2019-06-26T03:21:02.583Z,24.68
2019-06-26T03:23:29.169Z,24.67
2019-06-26T03:25:55.770Z,24.64
2019-06-26T03:28:22.351Z,24.64
2019-06-26T03:30:48.953Z,24.62
2019-06-26T03:33:15.578Z,24.62
2019-06-26T03:35:42.232Z,24.61
2019-06-26T03:38:08.867Z,24.62
2019-06-26T03:40:35.604Z,24.62
2019-06-26T03:43:02.203Z,24.62
2019-06-26T03:45:28.803Z,24.60
2019-06-26T03:47:55.416Z,24.58
2019-06-26T03:50:22.031Z,24.54
2019-06-26T03:52:48.651Z,24.50
2019-06-26T03:55:15.265Z,24.47
2019-06-26T03:57:41.866Z,24.42
2019-06-26T04:00:08.439Z,24.38
2019-06-26T04:02:35.037Z,24.34
2019-06-26T04:05:01.677Z,24.32
2019-06-26T04:07:28.310Z,24.31
2019-06-26T04:09:54.939Z,24.32
2019-06-26T04:12:21.549Z,24.34
2019-06-26T04:14:48.126Z,24.35
2019-06-26T04:17:14.763Z,24.38
2019-06-26T04:19:41.344Z,24.39
2019-06-26T04:22:07.925Z,24.40
2019-06-26T04:24:34.531Z,24.43
2019-06-26T04:27:01.215Z,24.46
2019-06-26T04:29:27.828Z,24.49
2019-06-26T04:31:54.428Z,24.50
2019-06-26T04:34:20.999Z,24.50
2019-06-26T04:36:47.627Z,24.52
2019-06-26T04:39:14.207Z,24.55
2019-06-26T04:41:40.794Z,24.56
2019-06-26T04:44:07.595Z,24.57
2019-06-26T04:46:34.345Z,24.60
2019-06-26T04:49:00.954Z,24.62
2019-06-26T04:51:27.546Z,24.69
2019-06-26T04:53:55.768Z,24.75
2019-06-26T04:56:22.532Z,24.82
2019-06-26T04:58:49.114Z,24.91
2019-06-26T05:01:15.688Z,24.99
2019-06-26T05:03:42.312Z,25.06
2019-06-26T05:06:08.890Z,25.14
2019-06-26T05:08:37.205Z,25.21
2019-06-26T05:11:03.872Z,25.28
2019-06-26T05:13:30.462Z,25.36
2019-06-26T05:16:10.582Z,25.43
2019-06-26T05:18:25.629Z,25.50
2019-06-26T05:20:52.189Z,25.57
2019-06-26T05:23:18.807Z,25.64
2019-06-26T05:25:45.419Z,25.72
2019-06-26T05:28:12.025Z,25.79
2019-06-26T05:30:38.611Z,25.89
2019-06-26T05:33:05.217Z,25.97
2019-06-26T05:35:34.888Z,26.04
2019-06-26T05:38:00.127Z,26.12
2019-06-26T05:40:26.745Z,26.21
2019-06-26T05:42:53.440Z,26.31
2019-06-26T05:45:20.020Z,26.39
2019-06-26T05:47:46.621Z,26.47
2019-06-26T05:50:13.205Z,26.54
2019-06-26T05:52:42.545Z,26.61
2019-06-26T05:55:08.099Z,26.67
2019-06-26T05:57:34.726Z,26.75
2019-06-26T06:00:01.440Z,26.84
2019-06-26T06:02:28.029Z,26.92
2019-06-26T06:04:54.634Z,27.03
2019-06-26T06:07:21.354Z,27.09
2019-06-26T06:09:47.936Z,27.18
2019-06-26T06:12:14.546Z,27.25
2019-06-26T06:14:41.155Z,27.34
2019-06-26T06:17:07.734Z,27.41
2019-06-26T06:19:34.327Z,27.50
2019-06-26T06:22:00.943Z,27.57
2019-06-26T06:24:27.557Z,27.64
2019-06-26T06:26:54.153Z,27.75
2019-06-26T06:29:20.828Z,27.83
2019-06-26T06:31:47.428Z,27.94
2019-06-26T06:34:14.000Z,28.05
2019-06-26T06:36:40.612Z,28.14
2019-06-26T06:39:07.234Z,28.24
2019-06-26T06:41:33.821Z,28.34
2019-06-26T06:44:00.416Z,28.41
2019-06-26T06:46:26.995Z,28.50
2019-06-26T06:48:53.605Z,28.58
2019-06-26T06:51:20.180Z,28.66
2019-06-26T06:53:46.775Z,28.72
2019-06-26T06:56:13.358Z,28.79
2019-06-26T06:58:39.951Z,28.88
2019-06-26T07:01:06.564Z,28.93
2019-06-26T07:03:33.205Z,29.00
2019-06-26T07:06:00.800Z,29.06
2019-06-26T07:08:27.373Z,29.10
2019-06-26T07:10:53.968Z,29.16
2019-06-26T07:13:20.575Z,29.20
2019-06-26T07:15:47.183Z,29.30
2019-06-26T07:18:13.796Z,29.38
2019-06-26T07:20:40.363Z,29.49
2019-06-26T07:23:06.994Z,29.60
2019-06-26T07:25:33.766Z,29.73
2019-06-26T07:28:02.017Z,29.84
2019-06-26T07:30:28.682Z,29.99
2019-06-26T07:32:55.275Z,30.14
2019-06-26T07:35:21.899Z,30.29
2019-06-26T07:37:48.461Z,30.43
2019-06-26T07:40:15.054Z,30.59
2019-06-26T07:42:41.875Z,30.70
2019-06-26T07:45:08.468Z,30.83
2019-06-26T07:47:43.095Z,30.93
2019-06-26T07:50:03.454Z,31.04
2019-06-26T07:52:30.391Z,31.17
2019-06-26T07:54:56.983Z,31.29
2019-06-26T07:57:23.680Z,31.43
2019-06-26T07:59:50.280Z,31.56
2019-06-26T08:02:16.872Z,31.66
2019-06-26T08:04:43.442Z,31.77
2019-06-26T08:07:10.403Z,31.90
2019-06-26T08:09:37.007Z,32.01
2019-06-26T08:12:03.582Z,32.13
2019-06-26T08:14:30.314Z,32.24
2019-06-26T08:16:56.894Z,32.34
2019-06-26T08:19:23.538Z,32.47
2019-06-26T08:21:50.109Z,32.59
2019-06-26T08:24:16.722Z,32.70
2019-06-26T08:26:43.403Z,32.77
2019-06-26T08:29:09.987Z,32.85
2019-06-26T08:31:36.566Z,32.92
2019-06-26T08:34:03.161Z,32.95
2019-06-26T08:36:29.854Z,33.00
2019-06-26T08:38:56.476Z,33.05
2019-06-26T08:41:23.099Z,33.10
2019-06-26T08:43:49.666Z,33.18
2019-06-26T08:46:16.321Z,33.19
2019-06-26T08:48:42.897Z,33.26
2019-06-26T08:51:09.501Z,33.31
2019-06-26T08:53:36.662Z,33.38
2019-06-26T08:56:03.267Z,33.49
2019-06-26T08:58:30.010Z,33.59
2019-06-26T09:00:56.579Z,33.72
2019-06-26T09:03:23.282Z,33.84
2019-06-26T09:05:49.871Z,33.98
2019-06-26T09:08:16.543Z,34.11
2019-06-26T09:10:45.083Z,34.23
2019-06-26T09:13:11.769Z,34.35
2019-06-26T09:15:38.379Z,34.47
2019-06-26T09:18:05.037Z,34.60
2019-06-26T09:20:31.645Z,34.71
2019-06-26T09:22:58.269Z,34.81
2019-06-26T09:25:24.849Z,34.90
2019-06-26T09:27:51.423Z,35.00
2019-06-26T09:30:18.040Z,35.11
2019-06-26T09:32:44.637Z,35.23
2019-06-26T09:35:11.407Z,35.35
2019-06-26T09:37:38.026Z,35.41
2019-06-26T09:40:04.734Z,35.45
2019-06-26T09:42:31.357Z,35.47
2019-06-26T09:44:57.957Z,35.55
2019-06-26T09:47:24.516Z,35.62
2019-06-26T09:49:51.120Z,35.74
2019-06-26T09:52:17.713Z,35.83
2019-06-26T09:54:44.287Z,35.86
2019-06-26T09:57:10.897Z,35.81
2019-06-26T09:59:37.511Z,35.77
2019-06-26T10:02:04.119Z,35.72
2019-06-26T10:04:30.775Z,35.74
2019-06-26T10:06:57.348Z,35.79
2019-06-26T10:09:24.038Z,35.88
2019-06-26T10:11:50.653Z,35.95
2019-06-26T10:14:17.220Z,36.08
2019-06-26T10:16:43.865Z,36.16
2019-06-26T10:19:11.055Z,36.22
2019-06-26T10:21:37.833Z,36.32
2019-06-26T10:24:04.433Z,36.42
2019-06-26T10:26:32.529Z,36.39
2019-06-26T10:28:59.381Z,36.35
2019-06-26T10:31:25.962Z,36.39
2019-06-26T10:33:52.577Z,36.36
2019-06-26T10:36:19.167Z,36.45
2019-06-26T10:38:45.786Z,36.64
2019-06-26T10:41:12.497Z,36.88
2019-06-26T10:43:39.073Z,37.10
2019-06-26T10:46:05.643Z,37.20
2019-06-26T10:48:32.288Z,37.20
2019-06-26T10:50:59.207Z,37.17
2019-06-26T10:53:25.884Z,37.17
2019-06-26T10:55:52.476Z,37.16
2019-06-26T10:58:19.105Z,37.05
2019-06-26T11:00:45.714Z,36.96
2019-06-26T11:03:12.287Z,36.88
2019-06-26T11:05:38.921Z,36.70
2019-06-26T11:08:05.485Z,36.58
2019-06-26T11:10:32.056Z,36.49
2019-06-26T11:12:58.684Z,36.42
2019-06-26T11:15:25.274Z,36.41
2019-06-26T11:17:51.948Z,36.33
2019-06-26T11:20:18.634Z,36.25
2019-06-26T11:22:45.205Z,36.09
2019-06-26T11:25:11.799Z,36.00
2019-06-26T11:27:38.370Z,35.98
2019-06-26T11:30:04.985Z,35.88
2019-06-26T11:32:31.674Z,35.81
2019-06-26T11:34:58.253Z,36.61
2019-06-26T11:37:24.859Z,37.66
2019-06-26T11:39:51.525Z,38.94
2019-06-26T11:42:18.133Z,39.46
2019-06-26T11:44:44.738Z,39.42
2019-06-26T11:47:11.384Z,39.26
2019-06-26T11:49:38.048Z,39.08
2019-06-26T11:52:04.638Z,38.93
2019-06-26T11:54:31.206Z,38.79
2019-06-26T11:56:57.794Z,38.68
2019-06-26T11:59:24.369Z,38.60
2019-06-26T12:01:50.969Z,38.52
2019-06-26T12:04:17.598Z,38.42
2019-06-26T12:06:46.116Z,38.36
2019-06-26T12:09:12.547Z,38.13
2019-06-26T12:11:39.142Z,37.86
2019-06-26T12:14:05.832Z,37.72
2019-06-26T12:16:32.489Z,37.59
2019-06-26T12:18:59.098Z,37.43
2019-06-26T12:21:26.275Z,37.30
2019-06-26T12:23:52.859Z,37.18
2019-06-26T12:26:19.436Z,37.13
2019-06-26T12:28:46.175Z,37.01
2019-06-26T12:31:13.372Z,36.93
2019-06-26T12:33:40.032Z,36.92
2019-06-26T12:36:06.633Z,36.88
2019-06-26T12:38:33.290Z,36.89
2019-06-26T12:40:59.893Z,36.81
2019-06-26T12:43:26.487Z,36.77
2019-06-26T12:45:53.118Z,36.78
2019-06-26T12:48:19.676Z,36.81
2019-06-26T12:50:46.347Z,36.86
2019-06-26T12:53:13.002Z,36.91
2019-06-26T12:55:39.690Z,36.95
2019-06-26T12:58:13.130Z,37.03
2019-06-26T13:00:34.686Z,37.07
2019-06-26T13:03:01.262Z,37.10
2019-06-26T13:05:27.842Z,37.10
2019-06-26T13:07:54.454Z,37.12
2019-06-26T13:10:21.036Z,37.15
2019-06-26T13:12:47.598Z,37.15
2019-06-26T13:15:14.253Z,37.17
2019-06-26T13:17:40.847Z,37.16
2019-06-26T13:20:09.850Z,37.08
2019-06-26T13:22:36.009Z,37.04
2019-06-26T13:25:02.590Z,36.94
2019-06-26T13:27:29.373Z,36.89
2019-06-26T13:29:55.974Z,36.80
2019-06-26T13:32:22.555Z,36.71
2019-06-26T13:34:49.172Z,36.62
2019-06-26T13:37:15.751Z,36.60
2019-06-26T13:39:42.360Z,36.63
2019-06-26T13:42:08.934Z,36.69
2019-06-26T13:44:35.506Z,36.68
2019-06-26T13:47:02.108Z,36.73
2019-06-26T13:49:28.720Z,36.76
2019-06-26T13:51:55.329Z,36.84
2019-06-26T13:54:21.913Z,36.91
2019-06-26T13:56:48.487Z,36.92
2019-06-26T13:59:15.075Z,37.02
2019-06-26T14:01:41.670Z,37.08
2019-06-26T14:04:08.301Z,37.09
2019-06-26T14:06:34.980Z,37.09
2019-06-26T14:09:01.555Z,37.14
2019-06-26T14:11:28.348Z,37.11
2019-06-26T14:13:54.918Z,37.18
2019-06-26T14:16:21.501Z,37.22
2019-06-26T14:18:48.095Z,37.26
2019-06-26T14:21:25.082Z,37.34
2019-06-26T14:23:42.981Z,37.37
2019-06-26T14:26:09.555Z,37.48
2019-06-26T14:28:36.135Z,37.55
2019-06-26T14:31:02.783Z,37.65
2019-06-26T14:33:29.499Z,37.74
2019-06-26T14:35:56.100Z,37.84
2019-06-26T14:38:22.689Z,37.91
2019-06-26T14:40:49.265Z,37.96
2019-06-26T14:43:15.869Z,38.03
2019-06-26T14:45:42.491Z,38.04
2019-06-26T14:48:09.136Z,38.02
2019-06-26T14:50:35.726Z,37.91
2019-06-26T14:53:02.314Z,37.89
2019-06-26T14:55:28.937Z,37.84
2019-06-26T14:57:55.504Z,37.84
2019-06-26T15:00:22.145Z,37.87
2019-06-26T15:02:48.760Z,37.94
2019-06-26T15:05:15.331Z,38.00
2019-06-26T15:07:41.954Z,38.05
2019-06-26T15:10:08.547Z,38.09
2019-06-26T15:12:35.123Z,38.06
2019-06-26T15:15:01.809Z,38.02
2019-06-26T15:17:28.814Z,37.98
2019-06-26T15:19:55.404Z,37.96
2019-06-26T15:22:22.062Z,37.90
2019-06-26T15:24:48.668Z,37.91
2019-06-26T15:27:15.242Z,37.88
2019-06-26T15:29:41.839Z,37.79
2019-06-26T15:32:08.434Z,37.65
2019-06-26T15:34:35.047Z,37.50
2019-06-26T15:37:01.630Z,37.37
2019-06-26T15:39:28.275Z,37.22
2019-06-26T15:41:54.923Z,37.12
2019-06-26T15:44:21.562Z,37.00
2019-06-26T15:46:48.168Z,36.90
2019-06-26T15:49:14.853Z,36.83
2019-06-26T15:51:41.440Z,36.79
2019-06-26T15:54:08.011Z,36.73
2019-06-26T15:56:34.614Z,36.73
2019-06-26T15:59:01.311Z,36.65
2019-06-26T16:01:27.989Z,36.55
2019-06-26T16:03:54.649Z,36.52
2019-06-26T16:06:21.472Z,36.43
2019-06-26T16:08:48.111Z,36.40
2019-06-26T16:11:14.685Z,36.30
2019-06-26T16:13:41.289Z,36.21
2019-06-26T16:16:07.886Z,36.15
2019-06-26T16:18:35.543Z,36.12
2019-06-26T16:21:02.136Z,36.07
2019-06-26T16:23:28.716Z,36.06
2019-06-26T16:25:55.326Z,36.02
2019-06-26T16:28:22.198Z,36.00
2019-06-26T16:30:49.083Z,35.95
2019-06-26T16:33:15.677Z,35.92
2019-06-26T16:35:42.257Z,35.90
2019-06-26T16:38:08.893Z,35.87
2019-06-26T16:40:35.479Z,35.82
2019-06-26T16:43:02.171Z,35.78
2019-06-26T16:45:28.764Z,35.73
2019-06-26T16:47:55.366Z,35.68
2019-06-26T16:50:21.955Z,35.64
2019-06-26T16:52:50.090Z,35.58
2019-06-26T16:55:17.029Z,35.52
2019-06-26T16:57:43.666Z,35.44
2019-06-26T17:00:10.493Z,35.38
2019-06-26T17:02:37.179Z,35.31
2019-06-26T17:05:03.954Z,35.28
2019-06-26T17:07:30.534Z,35.24
2019-06-26T17:09:57.105Z,35.21
2019-06-26T17:12:23.706Z,35.18
2019-06-26T17:14:50.374Z,35.18
2019-06-26T17:17:16.976Z,35.17
2019-06-26T17:19:43.750Z,35.15
2019-06-26T17:22:10.371Z,35.15
2019-06-26T17:24:37.961Z,35.13
2019-06-26T17:27:04.573Z,35.12
2019-06-26T17:29:31.211Z,35.10
2019-06-26T17:31:57.779Z,35.10
2019-06-26T17:34:27.175Z,35.08
2019-06-26T17:36:52.663Z,35.05
2019-06-26T17:39:19.241Z,35.05
2019-06-26T17:41:45.982Z,35.04
2019-06-26T17:44:12.575Z,35.03
2019-06-26T17:46:39.154Z,35.03
2019-06-26T17:49:05.792Z,35.01
2019-06-26T17:51:32.367Z,34.98
2019-06-26T17:53:58.936Z,34.96
2019-06-26T17:56:25.568Z,34.93
2019-06-26T17:58:52.138Z,34.90
2019-06-26T18:01:18.776Z,34.87
2019-06-26T18:03:45.409Z,34.84
2019-06-26T18:06:12.019Z,34.80
2019-06-26T18:08:38.647Z,34.75
2019-06-26T18:11:05.216Z,34.71
2019-06-26T18:13:31.783Z,34.65
2019-06-26T18:15:58.399Z,34.61
2019-06-26T18:18:25.020Z,34.57
2019-06-26T18:20:51.588Z,34.51
2019-06-26T18:23:18.214Z,34.44
2019-06-26T18:25:53.598Z,34.38
2019-06-26T18:28:13.202Z,34.32
2019-06-26T18:30:39.789Z,34.23
2019-06-26T18:33:06.366Z,34.16
2019-06-26T18:35:32.952Z,34.08
2019-06-26T18:37:59.522Z,33.99
2019-06-26T18:40:26.177Z,33.91
2019-06-26T18:42:52.789Z,33.84
2019-06-26T18:45:19.439Z,33.75
2019-06-26T18:47:46.031Z,33.66
2019-06-26T18:50:12.663Z,33.58
2019-06-26T18:52:39.312Z,33.51
2019-06-26T18:55:05.904Z,33.43
2019-06-26T18:57:32.491Z,33.35
2019-06-26T18:59:59.304Z,33.29
2019-06-26T19:02:25.906Z,33.21
2019-06-26T19:04:54.185Z,33.14
2019-06-26T19:07:21.166Z,33.07
2019-06-26T19:09:47.735Z,33.00
2019-06-26T19:12:14.372Z,32.91
2019-06-26T19:14:40.957Z,32.85
2019-06-26T19:17:07.536Z,32.78
2019-06-26T19:19:34.164Z,32.69
2019-06-26T19:22:00.800Z,32.62
2019-06-26T19:24:27.387Z,32.55
2019-06-26T19:26:53.999Z,32.48
2019-06-26T19:29:20.598Z,32.41
2019-06-26T19:31:47.276Z,32.34
2019-06-26T19:34:13.868Z,32.28
2019-06-26T19:36:50.174Z,32.20
2019-06-26T19:39:08.951Z,32.14
2019-06-26T19:41:35.538Z,32.05
2019-06-26T19:44:02.179Z,31.96
2019-06-26T19:46:28.769Z,31.89
2019-06-26T19:48:57.551Z,31.82
2019-06-26T19:51:23.738Z,31.75
2019-06-26T19:53:50.574Z,31.68
2019-06-26T19:56:20.108Z,31.63
2019-06-26T19:58:45.479Z,31.56
2019-06-26T20:01:12.085Z,31.48
2019-06-26T20:03:38.703Z,31.41
2019-06-26T20:06:05.290Z,31.33
2019-06-26T20:08:31.912Z,31.26
2019-06-26T20:10:58.507Z,31.19
2019-06-26T20:13:25.085Z,31.10
2019-06-26T20:15:51.759Z,31.00
2019-06-26T20:18:19.382Z,30.90
2019-06-26T20:20:45.959Z,30.81
2019-06-26T20:23:12.554Z,30.73
2019-06-26T20:25:39.132Z,30.65
2019-06-26T20:28:05.761Z,30.56
2019-06-26T20:30:32.341Z,30.51
2019-06-26T20:32:58.932Z,30.46
2019-06-26T20:35:25.558Z,30.40
2019-06-26T20:37:52.209Z,30.35
2019-06-26T20:40:18.825Z,30.32
2019-06-26T20:42:45.494Z,30.27
2019-06-26T20:45:12.101Z,30.23
2019-06-26T20:47:38.667Z,30.20
2019-06-26T20:50:05.263Z,30.16
2019-06-26T20:52:31.861Z,30.12
2019-06-26T20:55:02.152Z,30.10
2019-06-26T20:57:26.770Z,30.09
2019-06-26T20:59:53.396Z,30.08
2019-06-26T21:02:19.983Z,30.08
2019-06-26T21:04:46.557Z,30.05
2019-06-26T21:07:13.139Z,30.04
2019-06-26T21:09:39.735Z,30.01
2019-06-26T21:12:06.322Z,29.98
2019-06-26T21:14:32.936Z,29.95
2019-06-26T21:16:59.525Z,29.93
2019-06-26T21:19:26.102Z,29.88
2019-06-26T21:21:52.767Z,29.84
2019-06-26T21:24:19.374Z,29.80
2019-06-26T21:26:45.974Z,29.75
2019-06-26T21:29:12.600Z,29.73
2019-06-26T21:31:39.204Z,29.71
2019-06-26T21:34:05.797Z,29.68
2019-06-26T21:36:32.444Z,29.66
2019-06-26T21:38:59.082Z,29.61
2019-06-26T21:41:25.684Z,29.58
2019-06-26T21:43:52.285Z,29.54
2019-06-26T21:46:18.890Z,29.50
2019-06-26T21:48:45.502Z,29.48
2019-06-26T21:51:12.075Z,29.43
2019-06-26T21:53:38.685Z,29.43
2019-06-26T21:56:05.243Z,29.41
2019-06-26T21:58:31.865Z,29.42
2019-06-26T22:00:58.477Z,29.44
2019-06-26T22:03:25.088Z,29.45
2019-06-26T22:05:51.742Z,29.47
2019-06-26T22:08:18.363Z,29.48
2019-06-26T22:10:44.973Z,29.49
2019-06-26T22:13:11.578Z,29.49
2019-06-26T22:15:38.160Z,29.48
2019-06-26T22:18:04.771Z,29.48
2019-06-26T22:20:31.373Z,29.47
2019-06-26T22:22:57.939Z,29.46
2019-06-26T22:25:24.552Z,29.45
2019-06-26T22:27:51.137Z,29.44
2019-06-26T22:30:17.798Z,29.44
2019-06-26T22:32:44.361Z,29.43
2019-06-26T22:35:10.944Z,29.42
2019-06-26T22:37:37.590Z,29.39
2019-06-26T22:40:04.162Z,29.36
2019-06-26T22:42:30.746Z,29.33
2019-06-26T22:44:57.527Z,29.29
2019-06-26T22:47:24.155Z,29.23
2019-06-26T22:49:50.970Z,29.16
2019-06-26T22:52:17.556Z,29.12
2019-06-26T22:54:44.156Z,29.05
2019-06-26T22:57:10.761Z,29.01
2019-06-26T22:59:37.384Z,28.95
2019-06-26T23:02:04.135Z,28.92
2019-06-26T23:04:30.716Z,28.85
2019-06-26T23:06:57.311Z,28.83
2019-06-26T23:09:23.925Z,28.80
2019-06-26T23:11:50.512Z,28.77
2019-06-26T23:14:17.173Z,28.74
2019-06-26T23:16:43.758Z,28.71
2019-06-26T23:19:10.336Z,28.69
2019-06-26T23:21:36.992Z,28.67
2019-06-26T23:24:03.624Z,28.65
2019-06-26T23:26:30.214Z,28.63
2019-06-26T23:28:56.832Z,28.64
2019-06-26T23:31:23.447Z,28.61
2019-06-26T23:33:50.235Z,28.61
2019-06-26T23:36:16.897Z,28.61
2019-06-26T23:38:43.545Z,28.62
2019-06-26T23:41:10.144Z,28.60
2019-06-26T23:43:36.733Z,28.61
2019-06-26T23:46:03.313Z,28.62
2019-06-26T23:48:29.932Z,28.64
2019-06-26T23:50:56.519Z,28.63
2019-06-26T23:53:23.101Z,28.62
2019-06-26T23:55:49.703Z,28.62
2019-06-26T23:58:16.301Z,28.57
